Terminal Aerodrome Forecast
Issued by NWS Des Moines, IA

Current Version | Previous Version | Text Only | Print | Product List | Glossary On
Versions: 1 2 3 4 5 6 7 8 9 10 11 12 13 14 15 16 17 18 19 20 21 22 23 24 25 26 27 28 29 30 31 32 33 34 35 36 37 38 39
000
FTUS43 KDMX 281325 AAA
TAFDSM
TAF AMD
KDSM 281325Z 2813/2912 34012G20KT P6SM VCTS FEW010 SCT035 BKN050CB
     FM281400 32010G16KT 4SM TSRA SCT015CB BKN020
      TEMPO 2814/2816 2SM TSRA SCT004CB BKN015 OVC020
     FM281600 18011G17KT P6SM FEW035 SCT060 BKN120
     FM282200 18010KT P6SM VCTS BKN035CB OVC100
     FM290300 VRB05KT P6SM SCT035 BKN120
     FM290600 31007KT P6SM SCT050=

USA.gov is the U.S. government's official web portal to all federal, state and local government web resources and services.